Time;durP1;ratioP1;P1;durP2;ratioP2;P2;SDS_P1;SDS_P2;PMS_P1;PMS_P2;Temp;Humidity;BMP_temperature;BMP_pressure;BME280_temperature;BME280_humidity;BME280_pressure;Samples;Min_cycle;Max_cycle;Signal;HPM_P1;HPM_P2
2023/06/09 00:00:19;;;;;;;3.83;3.53;;;;;;;;;;4941753;28;20055;-51
2023/06/09 00:02:47;;;;;;;4.22;3.85;;;;;;;;;;4940178;28;20127;-47
2023/06/09 00:05:13;;;;;;;3.90;3.38;;;;;;;;;;4946168;28;20098;-48
2023/06/09 00:07:38;;;;;;;3.30;3.10;;;;;;;;;;4942586;28;20044;-48
2023/06/09 00:10:04;;;;;;;3.60;3.30;;;;;;;;;;4944772;28;20042;-50
2023/06/09 00:12:30;;;;;;;3.40;3.03;;;;;;;;;;4944034;28;20127;-47
2023/06/09 00:14:55;;;;;;;4.40;4.00;;;;;;;;;;4941989;28;20483;-48
2023/06/09 00:17:24;;;;;;;3.78;3.47;;;;;;;;;;4943114;28;20500;-46
2023/06/09 00:19:52;;;;;;;6.70;3.58;;;;;;;;;;4943529;28;20023;-45
2023/06/09 00:22:19;;;;;;;5.40;3.65;;;;;;;;;;4941237;28;20044;-48
2023/06/09 00:24:45;;;;;;;6.55;3.90;;;;;;;;;;4943530;28;20037;-47
2023/06/09 00:27:11;;;;;;;4.15;3.60;;;;;;;;;;4943099;28;20040;-45
2023/06/09 00:29:36;;;;;;;3.95;3.63;;;;;;;;;;4946340;28;20419;-48
2023/06/09 00:32:02;;;;;;;4.18;3.78;;;;;;;;;;4948205;28;20067;-47
2023/06/09 00:34:28;;;;;;;4.25;3.60;;;;;;;;;;4943572;28;20028;-48
2023/06/09 00:36:53;;;;;;;4.20;3.50;;;;;;;;;;4944807;28;20054;-46
2023/06/09 00:39:19;;;;;;;5.53;3.90;;;;;;;;;;4943313;28;20027;-50
2023/06/09 00:41:44;;;;;;;5.32;4.05;;;;;;;;;;4949021;28;20039;-45
2023/06/09 00:44:12;;;;;;;3.95;3.65;;;;;;;;;;4945851;28;20035;-50
2023/06/09 00:46:38;;;;;;;3.70;3.40;;;;;;;;;;4939694;28;20566;-51
2023/06/09 00:49:04;;;;;;;4.05;3.65;;;;;;;;;;4944016;28;20354;-52
2023/06/09 00:51:32;;;;;;;4.30;3.88;;;;;;;;;;4947149;28;20066;-48
2023/06/09 00:53:57;;;;;;;4.10;3.80;;;;;;;;;;4945823;28;20444;-45
2023/06/09 00:56:23;;;;;;;5.97;4.07;;;;;;;;;;4946975;28;20058;-45
2023/06/09 00:58:49;;;;;;;3.85;3.55;;;;;;;;;;4946539;28;20035;-45
2023/06/09 01:01:14;;;;;;;4.22;3.60;;;;;;;;;;4937933;28;20027;-48
2023/06/09 01:03:40;;;;;;;6.18;4.35;;;;;;;;;;4941347;28;20381;-47
2023/06/09 01:06:13;;;;;;;4.32;4.03;;;;;;;;;;4945112;28;20039;-44
2023/06/09 01:08:45;;;;;;;5.40;4.05;;;;;;;;;;4941124;28;20031;-46
2023/06/09 01:11:17;;;;;;;7.72;3.88;;;;;;;;;;4944497;28;20031;-47
2023/06/09 01:13:55;;;;;;;5.70;3.80;;;;;;;;;;4946892;28;20114;-45
2023/06/09 01:16:52;;;;;;;4.95;4.18;;;;;;;;;;4941229;28;20051;-46
2023/06/09 01:19:31;;;;;;;7.38;4.15;;;;;;;;;;4930232;28;20164;-48
2023/06/09 01:22:02;;;;;;;4.15;3.80;;;;;;;;;;4943909;28;20070;-50
2023/06/09 01:24:58;;;;;;;4.60;4.20;;;;;;;;;;4943004;28;20496;-45
2023/06/09 01:27:24;;;;;;;4.60;3.67;;;;;;;;;;4942212;28;20070;-45
2023/06/09 01:29:52;;;;;;;4.18;3.72;;;;;;;;;;4942346;28;20030;-47
2023/06/09 01:32:18;;;;;;;4.25;3.90;;;;;;;;;;4947045;28;20035;-47
2023/06/09 01:34:44;;;;;;;4.28;3.97;;;;;;;;;;4945621;28;20027;-47
2023/06/09 01:37:11;;;;;;;4.90;3.67;;;;;;;;;;4938660;28;20122;-47
2023/06/09 01:39:37;;;;;;;4.32;3.53;;;;;;;;;;4943958;28;20023;-46
2023/06/09 01:42:03;;;;;;;4.38;3.97;;;;;;;;;;4946078;28;20070;-45
2023/06/09 01:44:28;;;;;;;4.88;4.10;;;;;;;;;;4942602;28;20093;-45
2023/06/09 01:46:54;;;;;;;5.38;4.00;;;;;;;;;;4943667;28;20089;-46
2023/06/09 01:49:39;;;;;;;4.63;4.20;;;;;;;;;;4946851;28;20055;-47
2023/06/09 01:52:15;;;;;;;4.68;3.85;;;;;;;;;;4902375;28;1164335;-45
2023/06/09 01:54:47;;;;;;;7.38;3.88;;;;;;;;;;4943431;28;20043;-47
2023/06/09 01:57:35;;;;;;;4.15;3.38;;;;;;;;;;4939513;28;20124;-48
2023/06/09 02:00:05;;;;;;;4.30;3.90;;;;;;;;;;4946947;28;20074;-48
2023/06/09 02:02:32;;;;;;;4.30;3.90;;;;;;;;;;4937393;28;20055;-49
2023/06/09 02:05:00;;;;;;;6.93;3.95;;;;;;;;;;4941751;28;20059;-46
2023/06/09 02:07:27;;;;;;;4.80;4.07;;;;;;;;;;4944358;28;20048;-47
2023/06/09 02:09:53;;;;;;;3.78;3.47;;;;;;;;;;4946626;28;20110;-49
2023/06/09 02:12:19;;;;;;;7.70;3.58;;;;;;;;;;4944261;28;20216;-52
2023/06/09 02:14:44;;;;;;;6.95;3.78;;;;;;;;;;4940981;28;20472;-50
2023/06/09 02:17:10;;;;;;;5.35;3.92;;;;;;;;;;4941958;28;20074;-52
2023/06/09 02:19:38;;;;;;;5.95;3.72;;;;;;;;;;4942538;28;20074;-50
2023/06/09 02:22:07;;;;;;;7.20;3.80;;;;;;;;;;4941615;28;20042;-46
2023/06/09 02:24:34;;;;;;;4.35;3.88;;;;;;;;;;4938248;28;20019;-45
2023/06/09 02:27:00;;;;;;;5.07;3.80;;;;;;;;;;4944017;28;20115;-46
2023/06/09 02:29:26;;;;;;;5.07;4.13;;;;;;;;;;4941411;28;20032;-45
2023/06/09 02:31:53;;;;;;;4.95;4.07;;;;;;;;;;4945182;28;20039;-49
2023/06/09 02:34:19;;;;;;;4.80;3.88;;;;;;;;;;4941868;28;20032;-47
2023/06/09 02:36:45;;;;;;;6.30;4.30;;;;;;;;;;4939292;28;20087;-46
2023/06/09 02:39:14;;;;;;;4.35;3.90;;;;;;;;;;4941458;28;20040;-46
2023/06/09 02:41:40;;;;;;;4.80;4.22;;;;;;;;;;4940912;28;20036;-47
2023/06/09 02:44:05;;;;;;;8.43;4.80;;;;;;;;;;4942308;28;20028;-46
2023/06/09 02:46:30;;;;;;;4.43;4.13;;;;;;;;;;4942793;28;20039;-49
2023/06/09 02:48:56;;;;;;;4.10;3.70;;;;;;;;;;4943990;28;20043;-50
2023/06/09 02:51:22;;;;;;;4.57;4.10;;;;;;;;;;4944067;28;20144;-46
2023/06/09 02:53:47;;;;;;;4.75;3.70;;;;;;;;;;4938739;28;20047;-52
2023/06/09 02:56:13;;;;;;;4.78;3.95;;;;;;;;;;4944868;28;20094;-52
2023/06/09 02:58:39;;;;;;;4.78;3.90;;;;;;;;;;4941910;28;20023;-49
2023/06/09 03:01:04;;;;;;;4.78;4.22;;;;;;;;;;4943015;28;20035;-49
2023/06/09 03:03:30;;;;;;;5.93;3.72;;;;;;;;;;4942378;28;20027;-45
2023/06/09 03:05:58;;;;;;;5.50;3.92;;;;;;;;;;4950012;28;20042;-47
2023/06/09 03:08:23;;;;;;;5.82;3.80;;;;;;;;;;4944044;28;20035;-47
2023/06/09 03:10:49;;;;;;;4.50;4.03;;;;;;;;;;4943502;28;20028;-45
2023/06/09 03:13:14;;;;;;;4.55;4.15;;;;;;;;;;4940683;28;20043;-45
2023/06/09 03:15:40;;;;;;;4.20;3.80;;;;;;;;;;4940313;28;20031;-47
2023/06/09 03:18:07;;;;;;;4.00;3.70;;;;;;;;;;4942257;28;20111;-46
2023/06/09 03:20:34;;;;;;;3.97;3.67;;;;;;;;;;4944046;28;20037;-46
2023/06/09 03:22:59;;;;;;;4.80;4.00;;;;;;;;;;4942024;28;20564;-48
2023/06/09 03:25:25;;;;;;;6.45;4.20;;;;;;;;;;4940074;28;20031;-47
2023/06/09 03:27:51;;;;;;;4.53;3.92;;;;;;;;;;4941112;28;20107;-46
2023/06/09 03:30:17;;;;;;;5.05;4.50;;;;;;;;;;4943292;28;20036;-46
2023/06/09 03:32:42;;;;;;;6.18;4.18;;;;;;;;;;4944676;28;20563;-46
2023/06/09 03:35:08;;;;;;;4.57;3.90;;;;;;;;;;4940652;28;20473;-47
2023/06/09 03:37:33;;;;;;;6.50;4.07;;;;;;;;;;4944064;28;20043;-48
2023/06/09 03:39:59;;;;;;;5.10;4.55;;;;;;;;;;4942177;28;20035;-52
2023/06/09 03:42:25;;;;;;;4.40;4.00;;;;;;;;;;4944000;28;20051;-46
2023/06/09 03:44:57;;;;;;;4.15;3.80;;;;;;;;;;4942365;28;20031;-45
2023/06/09 03:47:23;;;;;;;4.50;4.10;;;;;;;;;;4944894;28;20078;-45
2023/06/09 03:49:48;;;;;;;6.47;3.80;;;;;;;;;;4947074;28;20059;-47
2023/06/09 03:52:13;;;;;;;4.45;4.07;;;;;;;;;;4946666;28;20109;-47
2023/06/09 03:54:39;;;;;;;4.68;4.20;;;;;;;;;;4947117;28;20499;-52
2023/06/09 03:57:05;;;;;;;4.20;3.80;;;;;;;;;;4942731;28;20130;-45
2023/06/09 03:59:30;;;;;;;4.07;3.78;;;;;;;;;;4947663;28;20039;-45
2023/06/09 04:01:56;;;;;;;4.28;3.95;;;;;;;;;;4942592;28;20035;-48
2023/06/09 04:04:21;;;;;;;5.10;4.22;;;;;;;;;;4951508;28;20115;-49
2023/06/09 04:06:47;;;;;;;6.45;4.57;;;;;;;;;;4950444;28;20492;-49
2023/06/09 04:09:13;;;;;;;8.23;4.10;;;;;;;;;;4945596;28;20070;-49
2023/06/09 04:11:39;;;;;;;4.35;3.90;;;;;;;;;;4948589;28;20043;-46
2023/06/09 04:14:05;;;;;;;6.28;4.22;;;;;;;;;;4949127;28;20115;-49
2023/06/09 04:16:31;;;;;;;4.00;3.70;;;;;;;;;;4943959;28;20050;-52
2023/06/09 04:18:56;;;;;;;4.63;4.15;;;;;;;;;;4944978;28;20031;-48
2023/06/09 04:21:22;;;;;;;5.63;4.28;;;;;;;;;;4948336;28;20048;-51
2023/06/09 04:23:47;;;;;;;5.22;3.90;;;;;;;;;;4947174;28;20030;-45
2023/06/09 04:26:13;;;;;;;7.60;4.05;;;;;;;;;;4944849;28;20086;-49
2023/06/09 04:28:40;;;;;;;5.43;4.03;;;;;;;;;;4946852;28;20111;-45
2023/06/09 04:31:07;;;;;;;6.45;4.07;;;;;;;;;;4946884;28;20035;-48
2023/06/09 04:33:35;;;;;;;5.65;4.30;;;;;;;;;;4949555;28;20024;-45
2023/06/09 04:36:04;;;;;;;5.43;4.28;;;;;;;;;;4950065;28;20063;-43
2023/06/09 04:38:33;;;;;;;4.30;3.90;;;;;;;;;;4947472;28;20155;-45
2023/06/09 04:41:03;;;;;;;4.65;4.30;;;;;;;;;;4944076;28;20428;-45
2023/06/09 04:43:33;;;;;;;4.50;4.10;;;;;;;;;;4946440;28;20500;-45
2023/06/09 04:45:59;;;;;;;5.78;4.43;;;;;;;;;;4946294;28;20506;-46
2023/06/09 04:48:25;;;;;;;4.45;4.00;;;;;;;;;;4948145;28;20040;-45
2023/06/09 04:50:51;;;;;;;6.43;4.05;;;;;;;;;;4946189;28;20044;-45
2023/06/09 04:53:19;;;;;;;4.60;4.05;;;;;;;;;;4945391;28;20568;-45
2023/06/09 04:55:45;;;;;;;6.65;4.20;;;;;;;;;;4944267;28;20043;-52
2023/06/09 04:58:11;;;;;;;5.95;4.03;;;;;;;;;;4946646;28;20066;-45
2023/06/09 05:00:37;;;;;;;6.00;4.55;;;;;;;;;;4944138;28;20119;-47
2023/06/09 05:03:05;;;;;;;5.18;4.10;;;;;;;;;;4939735;28;20138;-46
2023/06/09 05:05:30;;;;;;;5.88;4.15;;;;;;;;;;4942460;28;20744;-51
2023/06/09 05:07:55;;;;;;;4.95;4.20;;;;;;;;;;4942600;28;20044;-52
2023/06/09 05:10:21;;;;;;;4.80;4.32;;;;;;;;;;4946039;28;20027;-45
2023/06/09 05:12:47;;;;;;;5.78;4.47;;;;;;;;;;4944332;28;20039;-48
2023/06/09 05:15:12;;;;;;;5.15;4.10;;;;;;;;;;4944841;28;20134;-47
2023/06/09 05:17:38;;;;;;;5.80;4.07;;;;;;;;;;4945235;28;20193;-46
2023/06/09 05:20:07;;;;;;;11.07;4.95;;;;;;;;;;4945717;28;20032;-47
2023/06/09 05:22:33;;;;;;;4.40;4.00;;;;;;;;;;4943262;28;20046;-49
2023/06/09 05:24:59;;;;;;;9.38;4.50;;;;;;;;;;4944195;28;20023;-51
2023/06/09 05:27:24;;;;;;;5.45;3.75;;;;;;;;;;4941657;28;20054;-44
2023/06/09 05:29:49;;;;;;;5.28;3.83;;;;;;;;;;4941476;28;20031;-45
2023/06/09 05:32:15;;;;;;;3.92;3.60;;;;;;;;;;4942508;28;20031;-51
2023/06/09 05:34:41;;;;;;;6.32;3.60;;;;;;;;;;4940800;28;20042;-48
2023/06/09 05:37:06;;;;;;;5.85;4.18;;;;;;;;;;4944307;28;20050;-48
2023/06/09 05:39:32;;;;;;;5.03;4.05;;;;;;;;;;4943828;28;20599;-50
2023/06/09 05:41:57;;;;;;;6.75;4.13;;;;;;;;;;4938839;28;20042;-48
2023/06/09 05:44:22;;;;;;;8.52;4.18;;;;;;;;;;4938988;28;20043;-49
2023/06/09 05:46:48;;;;;;;5.90;3.70;;;;;;;;;;4945778;28;20051;-52
2023/06/09 05:49:13;;;;;;;5.10;3.80;;;;;;;;;;4946933;28;20535;-50
2023/06/09 05:51:38;;;;;;;6.97;3.92;;;;;;;;;;4944104;28;20130;-45
2023/06/09 05:54:04;;;;;;;4.32;3.67;;;;;;;;;;4943895;28;21350;-48
2023/06/09 05:56:29;;;;;;;5.65;4.10;;;;;;;;;;4941235;28;20043;-46
2023/06/09 05:59:03;;;;;;;6.70;3.90;;;;;;;;;;4946510;28;20089;-45
2023/06/09 06:01:30;;;;;;;6.97;3.47;;;;;;;;;;4942306;28;20070;-47
2023/06/09 06:03:55;;;;;;;7.30;3.80;;;;;;;;;;4940658;28;20031;-46
2023/06/09 06:06:20;;;;;;;3.95;3.65;;;;;;;;;;4943023;28;20039;-46
2023/06/09 06:08:46;;;;;;;4.00;3.70;;;;;;;;;;4937843;28;20424;-45
2023/06/09 06:11:12;;;;;;;3.65;3.35;;;;;;;;;;4941094;28;20090;-49
2023/06/09 06:13:37;;;;;;;3.67;3.38;;;;;;;;;;4923155;28;20102;-47
2023/06/09 06:16:03;;;;;;;6.38;3.63;;;;;;;;;;4943950;28;20035;-46
2023/06/09 06:18:28;;;;;;;3.88;3.58;;;;;;;;;;4944712;28;20027;-49
2023/06/09 06:20:54;;;;;;;9.52;3.95;;;;;;;;;;4944766;28;20027;-47
2023/06/09 06:23:20;;;;;;;4.03;3.60;;;;;;;;;;4940455;28;20036;-50
2023/06/09 06:25:46;;;;;;;4.85;3.20;;;;;;;;;;4940642;28;20348;-50
2023/06/09 06:28:11;;;;;;;5.00;3.78;;;;;;;;;;4945023;28;20036;-50
2023/06/09 06:30:40;;;;;;;4.90;3.42;;;;;;;;;;4940709;28;20078;-49
2023/06/09 06:33:06;;;;;;;3.70;3.38;;;;;;;;;;4945400;28;20511;-50
2023/06/09 06:35:32;;;;;;;4.63;3.70;;;;;;;;;;4944907;28;20117;-46
2023/06/09 06:37:57;;;;;;;7.35;3.50;;;;;;;;;;4942283;28;20135;-48
2023/06/09 06:40:23;;;;;;;5.70;3.65;;;;;;;;;;4939515;28;20032;-46
2023/06/09 06:42:49;;;;;;;4.82;3.20;;;;;;;;;;4941903;28;20043;-46
2023/06/09 06:45:16;;;;;;;8.73;3.88;;;;;;;;;;4942488;28;20076;-52
2023/06/09 06:47:42;;;;;;;8.35;3.65;;;;;;;;;;4943212;28;20042;-44
2023/06/09 06:50:08;;;;;;;4.15;3.42;;;;;;;;;;4944782;28;20031;-50
2023/06/09 06:52:34;;;;;;;4.15;3.47;;;;;;;;;;4943871;28;20036;-52
2023/06/09 06:54:59;;;;;;;6.90;3.40;;;;;;;;;;4926267;29;20034;-50
2023/06/09 06:57:25;;;;;;;4.53;3.70;;;;;;;;;;4942946;28;20080;-50
2023/06/09 06:59:50;;;;;;;6.45;3.50;;;;;;;;;;4941199;28;20027;-48
2023/06/09 07:02:16;;;;;;;5.00;3.63;;;;;;;;;;4939973;28;20047;-52
2023/06/09 07:04:41;;;;;;;4.03;3.67;;;;;;;;;;4945209;28;20035;-49
2023/06/09 07:07:07;;;;;;;7.28;4.40;;;;;;;;;;4942180;28;20048;-49
2023/06/09 07:09:32;;;;;;;5.40;3.20;;;;;;;;;;4946667;28;20095;-53
2023/06/09 07:11:58;;;;;;;6.60;3.75;;;;;;;;;;4942808;28;20040;-45
2023/06/09 07:14:23;;;;;;;5.25;4.10;;;;;;;;;;4942136;28;20605;-51
2023/06/09 07:16:48;;;;;;;6.75;3.58;;;;;;;;;;4945508;28;20086;-51
2023/06/09 07:19:14;;;;;;;3.70;3.40;;;;;;;;;;4941983;28;20043;-49
2023/06/09 07:21:39;;;;;;;7.32;3.78;;;;;;;;;;4942156;28;20126;-49
2023/06/09 07:24:05;;;;;;;5.40;3.50;;;;;;;;;;4925870;29;20038;-46
2023/06/09 07:26:31;;;;;;;8.38;3.63;;;;;;;;;;4945565;28;20047;-48
2023/06/09 07:28:57;;;;;;;4.20;3.78;;;;;;;;;;4948630;28;20093;-49
2023/06/09 07:31:22;;;;;;;9.75;3.97;;;;;;;;;;4943934;28;20063;-48
2023/06/09 07:33:48;;;;;;;4.47;3.58;;;;;;;;;;4946777;28;20047;-51
2023/06/09 07:36:13;;;;;;;6.60;3.78;;;;;;;;;;4944870;28;20023;-45
2023/06/09 07:38:39;;;;;;;4.25;3.38;;;;;;;;;;4947224;28;20105;-48
2023/06/09 07:41:05;;;;;;;5.10;3.53;;;;;;;;;;4949218;28;20039;-52
2023/06/09 07:43:30;;;;;;;4.93;3.20;;;;;;;;;;4949699;28;20023;-53
2023/06/09 07:45:56;;;;;;;5.68;2.85;;;;;;;;;;4948815;28;20039;-49
2023/06/09 07:48:22;;;;;;;4.15;2.30;;;;;;;;;;4948429;28;20126;-45
2023/06/09 07:50:47;;;;;;;3.75;2.80;;;;;;;;;;4947462;28;20056;-46
2023/06/09 07:53:12;;;;;;;5.00;2.58;;;;;;;;;;4947335;28;20452;-45
2023/06/09 07:55:38;;;;;;;3.95;2.58;;;;;;;;;;4948228;28;20020;-46
2023/06/09 07:58:03;;;;;;;5.88;2.58;;;;;;;;;;4947024;28;20130;-49
2023/06/09 08:00:28;;;;;;;4.25;2.50;;;;;;;;;;4945321;28;20023;-50
2023/06/09 08:03:02;;;;;;;2.75;2.38;;;;;;;;;;4946633;28;20081;-45
2023/06/09 08:05:28;;;;;;;5.22;2.55;;;;;;;;;;4948069;28;20145;-45
2023/06/09 08:07:54;;;;;;;5.90;2.85;;;;;;;;;;4942080;28;20039;-50
2023/06/09 08:10:19;;;;;;;2.63;2.40;;;;;;;;;;4942293;28;20032;-47
2023/06/09 08:12:45;;;;;;;3.17;2.80;;;;;;;;;;4946868;28;20040;-49
2023/06/09 08:15:10;;;;;;;3.42;2.75;;;;;;;;;;4946479;28;20404;-48
2023/06/09 08:17:36;;;;;;;2.83;2.58;;;;;;;;;;4941546;28;20137;-47
2023/06/09 08:20:03;;;;;;;7.43;2.60;;;;;;;;;;4949053;28;20480;-50
2023/06/09 08:22:29;;;;;;;2.40;2.13;;;;;;;;;;4948620;28;20159;-48
2023/06/09 08:24:56;;;;;;;2.67;2.47;;;;;;;;;;4943455;28;20501;-46
2023/06/09 08:27:21;;;;;;;5.10;2.60;;;;;;;;;;4942755;28;20057;-47
2023/06/09 08:29:48;;;;;;;3.80;2.45;;;;;;;;;;4945476;28;20023;-47
2023/06/09 08:32:14;;;;;;;6.13;2.42;;;;;;;;;;4945224;28;20654;-47
2023/06/09 08:34:39;;;;;;;4.57;2.58;;;;;;;;;;4948870;28;20031;-48
2023/06/09 08:37:04;;;;;;;6.45;2.83;;;;;;;;;;4942514;28;20040;-45
2023/06/09 08:39:30;;;;;;;3.42;2.60;;;;;;;;;;4944767;28;20086;-52
2023/06/09 08:42:01;;;;;;;3.25;2.72;;;;;;;;;;4943254;28;20052;-47
2023/06/09 08:44:29;;;;;;;3.73;2.87;;;;;;;;;;4944990;28;20118;-49
2023/06/09 08:46:58;;;;;;;3.40;2.75;;;;;;;;;;4941988;28;20067;-48
2023/06/09 08:49:24;;;;;;;7.18;2.50;;;;;;;;;;4944477;28;20614;-50
2023/06/09 08:51:50;;;;;;;6.18;2.67;;;;;;;;;;4945837;28;20063;-48
2023/06/09 08:54:16;;;;;;;4.30;2.47;;;;;;;;;;4944272;28;20035;-48
2023/06/09 08:56:42;;;;;;;2.85;2.50;;;;;;;;;;4941452;28;20036;-46
2023/06/09 08:59:08;;;;;;;4.80;2.50;;;;;;;;;;4942167;28;20034;-49
2023/06/09 09:01:36;;;;;;;7.20;2.67;;;;;;;;;;4941721;28;20042;-49
2023/06/09 09:04:02;;;;;;;6.05;2.65;;;;;;;;;;4945538;28;20556;-52
2023/06/09 09:06:27;;;;;;;4.35;2.47;;;;;;;;;;4940299;28;20123;-48
2023/06/09 09:08:52;;;;;;;5.68;2.60;;;;;;;;;;4944517;28;20027;-49
2023/06/09 09:11:18;;;;;;;4.03;2.45;;;;;;;;;;4943268;28;20031;-50
2023/06/09 09:13:47;;;;;;;3.78;2.20;;;;;;;;;;4925518;28;20040;-47
2023/06/09 09:16:16;;;;;;;3.05;2.28;;;;;;;;;;4940970;28;20024;-45
2023/06/09 09:18:46;;;;;;;4.75;2.63;;;;;;;;;;4942192;28;20045;-49
2023/06/09 09:21:20;;;;;;;2.80;2.55;;;;;;;;;;4945981;28;20392;-46
2023/06/09 09:23:55;;;;;;;3.88;2.40;;;;;;;;;;4946019;28;20059;-45
2023/06/09 09:26:28;;;;;;;4.95;2.28;;;;;;;;;;4946243;28;20101;-45
2023/06/09 09:28:58;;;;;;;4.05;2.40;;;;;;;;;;4944257;28;20031;-45
2023/06/09 09:31:32;;;;;;;2.47;2.28;;;;;;;;;;4943954;28;20043;-46
2023/06/09 09:33:57;;;;;;;13.18;2.67;;;;;;;;;;4944972;28;20384;-46
2023/06/09 09:36:23;;;;;;;4.13;2.47;;;;;;;;;;4945214;28;20040;-49
2023/06/09 09:38:48;;;;;;;7.72;2.17;;;;;;;;;;4948685;28;20380;-49
2023/06/09 09:41:17;;;;;;;7.55;2.53;;;;;;;;;;4948184;28;20136;-50
2023/06/09 09:43:46;;;;;;;2.83;2.53;;;;;;;;;;4930531;29;20033;-48
2023/06/09 09:46:11;;;;;;;2.30;2.10;;;;;;;;;;4943738;28;20062;-50
2023/06/09 09:48:39;;;;;;;2.70;2.22;;;;;;;;;;4948402;28;20054;-51
2023/06/09 09:51:08;;;;;;;2.42;2.20;;;;;;;;;;4942912;28;20102;-48
2023/06/09 09:53:34;;;;;;;2.42;2.22;;;;;;;;;;4945304;28;20038;-47
2023/06/09 09:56:00;;;;;;;4.57;2.65;;;;;;;;;;4947760;28;20031;-51
2023/06/09 09:58:30;;;;;;;2.55;2.22;;;;;;;;;;4944937;28;20119;-53
2023/06/09 10:01:02;;;;;;;3.33;1.95;;;;;;;;;;4938069;28;20035;-46
2023/06/09 10:03:29;;;;;;;2.13;2.00;;;;;;;;;;4942007;28;20051;-46
2023/06/09 10:05:56;;;;;;;7.38;2.45;;;;;;;;;;4946237;28;20543;-46
2023/06/09 10:08:26;;;;;;;3.60;2.30;;;;;;;;;;4942213;28;20039;-52
2023/06/09 10:10:53;;;;;;;3.97;2.42;;;;;;;;;;4946038;28;20035;-49
2023/06/09 10:13:21;;;;;;;8.60;2.80;;;;;;;;;;4942715;28;20098;-46
2023/06/09 10:15:47;;;;;;;3.40;2.72;;;;;;;;;;4945041;28;20042;-46
2023/06/09 10:18:14;;;;;;;5.15;2.50;;;;;;;;;;4944874;28;20047;-48
2023/06/09 10:20:42;;;;;;;4.47;2.25;;;;;;;;;;4946959;28;20038;-45
2023/06/09 10:23:08;;;;;;;5.47;2.38;;;;;;;;;;4943166;28;20036;-49
2023/06/09 10:25:34;;;;;;;3.42;2.63;;;;;;;;;;4944288;28;20098;-51
2023/06/09 10:27:59;;;;;;;6.55;2.40;;;;;;;;;;4943323;28;20043;-46
2023/06/09 10:30:25;;;;;;;3.97;2.63;;;;;;;;;;4943825;28;20027;-51
2023/06/09 10:32:57;;;;;;;3.15;2.60;;;;;;;;;;4941182;28;20066;-47
2023/06/09 10:35:27;;;;;;;3.35;2.58;;;;;;;;;;4946378;28;20669;-51
2023/06/09 10:37:52;;;;;;;4.95;2.40;;;;;;;;;;4943230;28;20063;-50
2023/06/09 10:40:33;;;;;;;2.10;1.90;;;;;;;;;;4945211;28;20062;-49
2023/06/09 10:43:36;;;;;;;4.55;2.30;;;;;;;;;;4939437;28;20848;-49
2023/06/09 10:46:02;;;;;;;3.47;2.35;;;;;;;;;;4943320;28;20090;-47
2023/06/09 10:48:42;;;;;;;3.97;2.28;;;;;;;;;;4948567;28;20451;-52
2023/06/09 10:51:26;;;;;;;2.72;2.03;;;;;;;;;;4945142;28;20150;-51
2023/06/09 10:54:15;;;;;;;3.03;2.10;;;;;;;;;;4944491;28;20111;-53
2023/06/09 10:56:46;;;;;;;2.58;2.00;;;;;;;;;;4934940;28;20059;-49
2023/06/09 10:59:24;;;;;;;4.88;2.25;;;;;;;;;;4942266;28;20120;-49
2023/06/09 11:01:59;;;;;;;2.40;2.03;;;;;;;;;;4944262;28;20039;-50
2023/06/09 11:04:45;;;;;;;2.65;2.45;;;;;;;;;;4944967;28;20041;-50
2023/06/09 11:07:14;;;;;;;3.75;2.13;;;;;;;;;;4942105;28;20047;-52
2023/06/09 11:10:00;;;;;;;3.75;2.03;;;;;;;;;;4938483;28;20039;-51
2023/06/09 11:12:42;;;;;;;2.30;2.13;;;;;;;;;;4932125;28;20047;-45
2023/06/09 11:15:09;;;;;;;3.90;2.35;;;;;;;;;;4941911;28;20031;-47
2023/06/09 11:17:45;;;;;;;2.70;2.50;;;;;;;;;;4943567;28;20645;-43
2023/06/09 11:20:17;;;;;;;6.53;2.38;;;;;;;;;;4941431;28;20027;-50
2023/06/09 11:22:46;;;;;;;2.97;2.22;;;;;;;;;;4943085;28;20028;-45
2023/06/09 11:25:17;;;;;;;6.32;2.60;;;;;;;;;;4945023;28;20031;-45
2023/06/09 11:28:05;;;;;;;3.85;2.13;;;;;;;;;;4942744;28;20039;-50
2023/06/09 11:30:32;;;;;;;6.28;2.10;;;;;;;;;;4932721;28;20036;-51
2023/06/09 11:33:04;;;;;;;7.57;2.20;;;;;;;;;;4942776;28;20102;-48
2023/06/09 11:38:03;;;;;;;2.85;2.65;;;;;;;;;;4945208;28;20059;-46
2023/06/09 11:40:33;;;;;;;4.90;2.50;;;;;;;;;;4943845;28;20034;-48
2023/06/09 11:42:59;;;;;;;2.10;2.00;;;;;;;;;;4937424;28;20043;-49
2023/06/09 11:45:35;;;;;;;3.55;2.20;;;;;;;;;;4941913;28;20310;-52
2023/06/09 11:48:02;;;;;;;3.33;2.00;;;;;;;;;;4942047;28;20043;-51
2023/06/09 11:50:45;;;;;;;2.40;2.20;;;;;;;;;;4942621;28;20503;-51
2023/06/09 11:53:12;;;;;;;4.22;2.35;;;;;;;;;;4942222;28;20055;-48
2023/06/09 11:55:38;;;;;;;2.63;2.20;;;;;;;;;;4938388;28;20028;-50
2023/06/09 11:58:05;;;;;;;4.22;2.35;;;;;;;;;;4939757;28;20377;-51
2023/06/09 12:00:32;;;;;;;4.60;2.63;;;;;;;;;;4943653;28;20062;-52
2023/06/09 12:02:58;;;;;;;4.60;2.40;;;;;;;;;;4944927;28;20524;-47
2023/06/09 12:05:26;;;;;;;3.65;2.90;;;;;;;;;;4940876;28;20592;-45
2023/06/09 12:07:53;;;;;;;8.13;2.88;;;;;;;;;;4943790;28;20433;-45
2023/06/09 12:10:22;;;;;;;3.45;2.53;;;;;;;;;;4943483;28;20167;-50
2023/06/09 12:12:49;;;;;;;6.25;2.88;;;;;;;;;;4939970;28;20039;-48
2023/06/09 12:15:16;;;;;;;4.30;3.10;;;;;;;;;;4943513;28;20130;-47
2023/06/09 12:17:42;;;;;;;4.28;2.90;;;;;;;;;;4945895;28;20043;-48
2023/06/09 12:20:27;;;;;;;3.33;3.03;;;;;;;;;;4947795;28;20034;-51
2023/06/09 12:22:54;;;;;;;8.07;3.13;;;;;;;;;;4941757;28;20054;-46
2023/06/09 12:25:26;;;;;;;4.85;3.25;;;;;;;;;;4948515;28;20504;-48
2023/06/09 12:27:52;;;;;;;;;;;;;;;;;;4945417;28;20671;-47
2023/06/09 12:30:34;;;;;;;7.53;3.60;;;;;;;;;;4946982;28;19973;-48
2023/06/09 12:33:10;;;;;;;9.35;3.40;;;;;;;;;;4945990;28;20040;-47
2023/06/09 12:35:38;;;;;;;4.28;3.60;;;;;;;;;;4945970;28;20051;-45
2023/06/09 12:38:14;;;;;;;4.72;3.30;;;;;;;;;;4946718;28;20094;-50
2023/06/09 12:40:45;;;;;;;4.10;3.20;;;;;;;;;;4943036;28;20049;-51
2023/06/09 12:43:11;;;;;;;8.02;3.50;;;;;;;;;;4945981;28;20554;-48
2023/06/09 12:45:37;;;;;;;3.70;3.40;;;;;;;;;;4942181;28;20477;-45
2023/06/09 12:48:06;;;;;;;5.03;3.30;;;;;;;;;;4944627;28;20402;-48
2023/06/09 12:50:32;;;;;;;6.75;3.35;;;;;;;;;;4945758;28;20136;-49
2023/06/09 12:52:58;;;;;;;3.55;3.00;;;;;;;;;;4949556;28;20043;-51
2023/06/09 12:55:24;;;;;;;4.75;3.28;;;;;;;;;;4947196;28;20083;-49
2023/06/09 12:57:49;;;;;;;5.95;3.42;;;;;;;;;;4945083;28;20047;-48
2023/06/09 13:00:15;;;;;;;4.47;3.33;;;;;;;;;;4942246;28;20548;-52
2023/06/09 13:02:40;;;;;;;8.02;3.40;;;;;;;;;;4943872;28;20045;-52
2023/06/09 13:05:06;;;;;;;4.70;2.63;;;;;;;;;;4941845;28;20020;-49
2023/06/09 13:07:32;;;;;;;5.53;3.30;;;;;;;;;;4945574;28;20171;-51
2023/06/09 13:09:57;;;;;;;3.40;3.10;;;;;;;;;;4941618;28;20076;-50
2023/06/09 13:12:22;;;;;;;3.42;3.13;;;;;;;;;;4944595;28;20031;-46
2023/06/09 13:14:48;;;;;;;6.95;3.17;;;;;;;;;;4943952;28;20031;-51
2023/06/09 13:17:13;;;;;;;3.08;2.88;;;;;;;;;;4946372;28;20115;-48
2023/06/09 13:19:38;;;;;;;3.33;2.75;;;;;;;;;;4942258;28;20102;-47
2023/06/09 13:22:04;;;;;;;4.28;2.83;;;;;;;;;;4945891;28;20789;-47
2023/06/09 13:24:30;;;;;;;4.28;3.28;;;;;;;;;;4941035;28;20031;-47
2023/06/09 13:26:55;;;;;;;4.03;3.30;;;;;;;;;;4946913;28;20045;-49
2023/06/09 13:29:21;;;;;;;7.35;3.05;;;;;;;;;;4944943;28;20039;-48
2023/06/09 13:31:46;;;;;;;7.13;3.17;;;;;;;;;;4945367;28;20106;-48
2023/06/09 13:34:13;;;;;;;3.72;3.17;;;;;;;;;;4946369;28;20388;-49
2023/06/09 13:36:38;;;;;;;6.55;3.65;;;;;;;;;;4945596;28;20048;-49
2023/06/09 13:39:04;;;;;;;3.80;3.10;;;;;;;;;;4944997;28;20122;-50
2023/06/09 13:41:30;;;;;;;4.35;3.40;;;;;;;;;;4946266;28;20047;-49
2023/06/09 13:43:56;;;;;;;5.90;3.45;;;;;;;;;;4945228;28;20043;-47
2023/06/09 13:46:22;;;;;;;7.45;3.28;;;;;;;;;;4947249;28;20035;-50
2023/06/09 13:48:48;;;;;;;3.33;3.08;;;;;;;;;;4947369;28;20670;-50
2023/06/09 13:51:13;;;;;;;7.68;3.13;;;;;;;;;;4944203;28;20047;-49
2023/06/09 13:53:39;;;;;;;3.80;3.20;;;;;;;;;;4945352;28;20062;-48
2023/06/09 13:56:04;;;;;;;3.72;3.40;;;;;;;;;;4946644;28;20050;-50
2023/06/09 13:58:30;;;;;;;4.20;3.70;;;;;;;;;;4945036;28;20039;-45
2023/06/09 14:00:55;;;;;;;3.63;3.22;;;;;;;;;;4944675;28;20105;-47
2023/06/09 14:03:22;;;;;;;3.97;3.58;;;;;;;;;;4941170;28;20040;-50
2023/06/09 14:05:47;;;;;;;4.85;3.80;;;;;;;;;;4948838;28;20115;-53
2023/06/09 14:08:12;;;;;;;9.18;3.10;;;;;;;;;;4945641;28;20130;-48
2023/06/09 14:10:38;;;;;;;3.97;3.30;;;;;;;;;;4940224;28;20039;-48
2023/06/09 14:13:04;;;;;;;3.42;2.97;;;;;;;;;;4943405;28;20046;-53
2023/06/09 14:15:29;;;;;;;3.00;2.75;;;;;;;;;;4942776;28;20023;-50
2023/06/09 14:17:56;;;;;;;3.38;3.00;;;;;;;;;;4944974;28;20058;-51
2023/06/09 14:20:24;;;;;;;6.18;3.10;;;;;;;;;;4943253;28;20075;-46
2023/06/09 14:22:50;;;;;;;3.70;3.40;;;;;;;;;;4939910;28;20039;-49
2023/06/09 14:25:18;;;;;;;3.75;3.20;;;;;;;;;;4940635;28;20098;-45
2023/06/09 14:27:52;;;;;;;6.15;3.10;;;;;;;;;;4942732;28;20043;-50
2023/06/09 14:30:19;;;;;;;3.85;3.50;;;;;;;;;;4941290;28;20027;-46
2023/06/09 14:32:47;;;;;;;8.48;3.22;;;;;;;;;;4943999;28;20035;-45
2023/06/09 14:35:19;;;;;;;4.38;3.35;;;;;;;;;;4943105;28;20503;-45
2023/06/09 14:37:46;;;;;;;6.28;3.30;;;;;;;;;;4938955;28;20039;-49
2023/06/09 14:40:12;;;;;;;7.18;3.42;;;;;;;;;;4938055;28;20031;-47
2023/06/09 14:42:37;;;;;;;5.15;2.92;;;;;;;;;;4946366;28;20713;-48
2023/06/09 14:45:03;;;;;;;7.00;3.10;;;;;;;;;;4943914;28;20031;-51
2023/06/09 14:47:28;;;;;;;5.43;3.63;;;;;;;;;;4945705;28;20039;-50